createdAt,value
2017-10-20T00:01:21.023Z,32.17
2017-10-20T00:03:49.356Z,35.23
2017-10-20T00:06:18.024Z,36.70
2017-10-20T00:08:46.337Z,36.83
2017-10-20T00:11:14.646Z,36.50
2017-10-20T00:13:42.956Z,35.67
2017-10-20T00:16:11.277Z,34.63
2017-10-20T00:18:39.627Z,36.20
2017-10-20T00:21:07.948Z,36.80
2017-10-20T00:23:36.255Z,37.93
2017-10-20T00:26:04.688Z,36.43
2017-10-20T00:28:33.009Z,35.27
2017-10-20T00:31:01.405Z,37.10
2017-10-20T00:33:29.712Z,35.77
2017-10-20T00:35:58.017Z,37.93
2017-10-20T00:38:26.333Z,34.33
2017-10-20T00:40:54.652Z,34.90
2017-10-20T00:43:22.984Z,35.87
2017-10-20T00:45:51.296Z,35.37
2017-10-20T00:48:19.605Z,39.07
2017-10-20T00:50:47.976Z,34.40
2017-10-20T00:53:16.302Z,37.80
2017-10-20T00:55:44.847Z,35.40
2017-10-20T00:58:13.349Z,33.30
2017-10-20T01:00:42.020Z,36.83
2017-10-20T01:03:10.440Z,34.83
2017-10-20T01:05:38.791Z,34.67
2017-10-20T01:08:07.443Z,34.60
2017-10-20T01:10:35.919Z,33.17
2017-10-20T01:13:04.288Z,36.63
2017-10-20T01:15:33.504Z,32.17
2017-10-20T01:18:02.006Z,31.50
2017-10-20T01:20:30.407Z,34.17
2017-10-20T01:22:58.827Z,33.47
2017-10-20T01:25:28.072Z,33.13
2017-10-20T01:27:56.543Z,32.10
2017-10-20T01:30:25.072Z,32.43
2017-10-20T01:32:54.151Z,32.27
2017-10-20T01:35:22.524Z,33.20
2017-10-20T01:37:50.912Z,31.40
2017-10-20T01:40:19.334Z,36.07
2017-10-20T01:42:47.716Z,30.50
2017-10-20T01:45:16.117Z,34.40
2017-10-20T01:47:44.498Z,32.13
2017-10-20T01:50:13.056Z,34.77
2017-10-20T01:52:41.512Z,34.10
2017-10-20T01:55:10.048Z,32.23
2017-10-20T01:57:38.707Z,31.53
2017-10-20T02:00:07.152Z,34.23
2017-10-20T02:02:35.797Z,34.07
2017-10-20T02:05:04.759Z,34.67
2017-10-20T02:07:33.292Z,31.80
2017-10-20T02:10:01.644Z,31.13
2017-10-20T02:12:29.996Z,32.27
2017-10-20T02:14:58.723Z,32.20
2017-10-20T02:17:27.201Z,31.93
2017-10-20T02:19:55.552Z,33.20
2017-10-20T02:22:23.975Z,32.60
2017-10-20T02:24:52.328Z,31.67
2017-10-20T02:27:20.676Z,32.73
2017-10-20T02:29:49.031Z,34.80
2017-10-20T02:32:17.408Z,31.90
2017-10-20T02:34:45.771Z,32.43
2017-10-20T02:37:14.193Z,33.90
2017-10-20T02:39:42.716Z,32.00
2017-10-20T02:42:11.209Z,29.40
2017-10-20T02:44:39.568Z,33.07
2017-10-20T02:47:07.913Z,33.10
2017-10-20T02:49:36.513Z,32.47
2017-10-20T02:52:04.923Z,31.93
2017-10-20T02:54:33.277Z,33.03
2017-10-20T02:57:01.776Z,31.93
2017-10-20T02:59:30.217Z,29.67
2017-10-20T03:01:58.743Z,33.30
2017-10-20T03:04:27.496Z,34.57
2017-10-20T03:06:55.892Z,33.87
2017-10-20T03:09:24.231Z,31.10
2017-10-20T03:11:53.331Z,30.53
2017-10-20T03:14:22.543Z,30.87
2017-10-20T03:16:50.857Z,32.27
2017-10-20T03:19:19.160Z,31.03
2017-10-20T03:21:47.491Z,31.43
2017-10-20T03:24:15.812Z,33.13
2017-10-20T03:26:44.140Z,31.73
2017-10-20T03:29:12.468Z,31.33
2017-10-20T03:31:40.784Z,32.53
2017-10-20T03:34:09.975Z,30.93
2017-10-20T03:36:38.296Z,33.17
2017-10-20T03:39:07.136Z,30.20
2017-10-20T03:41:35.452Z,30.40
2017-10-20T03:44:03.841Z,29.93
2017-10-20T03:46:32.200Z,31.00
2017-10-20T03:49:00.524Z,29.80
2017-10-20T03:51:28.895Z,33.00
2017-10-20T03:53:57.294Z,32.63
2017-10-20T03:56:25.680Z,33.53
2017-10-20T03:58:54.048Z,34.10
2017-10-20T04:01:22.414Z,30.83
2017-10-20T04:03:50.982Z,31.10
2017-10-20T04:06:19.336Z,33.40
2017-10-20T04:08:47.959Z,32.30
2017-10-20T04:11:16.608Z,30.90
2017-10-20T04:13:45.001Z,31.07
2017-10-20T04:16:13.584Z,29.07
2017-10-20T04:18:41.952Z,29.23
2017-10-20T04:21:10.281Z,30.80
2017-10-20T04:23:38.653Z,30.60
2017-10-20T04:26:07.052Z,29.30
2017-10-20T04:28:35.356Z,30.97
2017-10-20T04:31:03.668Z,28.30
2017-10-20T04:33:31.958Z,28.63
2017-10-20T04:36:00.260Z,29.53
2017-10-20T04:38:29.328Z,28.40
2017-10-20T04:40:57.639Z,27.10
2017-10-20T04:43:26.683Z,28.77
2017-10-20T04:45:54.999Z,28.13
2017-10-20T04:48:23.380Z,27.10
2017-10-20T04:50:51.685Z,29.20
2017-10-20T04:53:20.015Z,26.70
2017-10-20T04:55:48.655Z,28.03
2017-10-20T04:58:16.952Z,28.90
2017-10-20T05:00:45.240Z,25.00
2017-10-20T05:03:13.564Z,27.33
2017-10-20T05:05:42.611Z,27.27
2017-10-20T05:08:11.168Z,26.67
2017-10-20T05:10:39.548Z,26.53
2017-10-20T05:13:07.872Z,25.23
2017-10-20T05:15:36.335Z,26.30
2017-10-20T05:18:04.640Z,26.20
2017-10-20T05:20:33.128Z,27.00
2017-10-20T05:23:01.431Z,27.73
2017-10-20T05:25:29.752Z,25.00
2017-10-20T05:27:58.112Z,26.00
2017-10-20T05:30:26.471Z,26.00
2017-10-20T05:32:54.796Z,27.67
2017-10-20T05:35:23.184Z,25.80
2017-10-20T05:37:51.548Z,27.70
2017-10-20T05:40:19.926Z,24.77
2017-10-20T05:42:48.279Z,26.50
2017-10-20T05:45:16.604Z,26.87
2017-10-20T05:47:46.449Z,26.20
2017-10-20T05:50:15.847Z,26.10
2017-10-20T05:52:44.180Z,27.07
2017-10-20T05:55:12.509Z,26.90
2017-10-20T05:57:41.104Z,26.10
2017-10-20T06:00:09.492Z,25.73
2017-10-20T06:02:37.890Z,24.93
2017-10-20T06:05:06.221Z,25.93
2017-10-20T06:07:35.366Z,25.53
2017-10-20T06:10:04.009Z,25.80
2017-10-20T06:12:33.238Z,25.33
2017-10-20T06:15:01.537Z,27.93
2017-10-20T06:17:38.882Z,24.83
2017-10-20T06:20:07.257Z,26.17
2017-10-20T06:22:36.348Z,25.67
2017-10-20T06:25:05.408Z,24.77
2017-10-20T06:27:33.752Z,24.80
2017-10-20T06:30:02.068Z,24.37
2017-10-20T06:32:30.396Z,25.60
2017-10-20T06:34:58.751Z,24.87
2017-10-20T06:37:27.108Z,24.30
2017-10-20T06:39:55.429Z,26.43
2017-10-20T06:42:23.953Z,24.23
2017-10-20T06:44:52.386Z,25.70
2017-10-20T06:47:20.813Z,26.13
2017-10-20T06:49:49.326Z,25.87
2017-10-20T06:52:18.560Z,25.47
2017-10-20T06:54:46.937Z,25.47
2017-10-20T06:57:15.337Z,25.80
2017-10-20T06:59:43.724Z,25.70
2017-10-20T07:02:13.184Z,25.63
2017-10-20T07:04:42.009Z,24.23
2017-10-20T07:07:10.700Z,24.30
2017-10-20T07:09:39.177Z,25.40
2017-10-20T07:12:09.072Z,24.60
2017-10-20T07:14:37.486Z,24.30
2017-10-20T07:17:05.930Z,24.13
2017-10-20T07:19:34.496Z,22.70
2017-10-20T07:22:03.029Z,23.83
2017-10-20T07:24:31.374Z,22.43
2017-10-20T07:26:59.837Z,25.67
2017-10-20T07:29:28.336Z,21.70
2017-10-20T07:31:56.964Z,23.07
2017-10-20T07:34:25.600Z,22.83
2017-10-20T07:36:53.940Z,23.60
2017-10-20T07:39:22.513Z,22.80
2017-10-20T07:41:51.051Z,20.77
2017-10-20T07:44:19.437Z,21.50
2017-10-20T07:46:48.001Z,23.10
2017-10-20T07:49:16.369Z,21.23
2017-10-20T07:51:45.440Z,22.40
2017-10-20T07:54:13.804Z,20.77
2017-10-20T07:56:42.140Z,20.03
2017-10-20T07:59:10.486Z,19.53
2017-10-20T08:01:39.552Z,21.60
2017-10-20T08:04:08.085Z,20.30
2017-10-20T08:06:36.443Z,20.90
2017-10-20T08:09:06.191Z,19.27
2017-10-20T08:11:34.692Z,17.33
2017-10-20T08:14:03.016Z,18.17
2017-10-20T08:16:35.369Z,18.70
2017-10-20T08:19:03.986Z,18.60
2017-10-20T08:21:33.219Z,17.97
2017-10-20T08:24:01.801Z,17.50
2017-10-20T08:26:30.161Z,17.23
2017-10-20T08:28:58.665Z,15.57
2017-10-20T08:31:27.213Z,17.07
2017-10-20T08:33:55.533Z,15.67
2017-10-20T08:36:24.196Z,15.47
2017-10-20T08:38:52.551Z,15.77
2017-10-20T08:41:20.883Z,16.47
2017-10-20T08:43:49.596Z,15.30
2017-10-20T08:46:18.423Z,13.53
2017-10-20T08:48:46.772Z,14.13
2017-10-20T08:51:15.244Z,13.00
2017-10-20T08:53:43.872Z,12.67
2017-10-20T08:56:12.200Z,13.00
2017-10-20T08:58:40.564Z,13.97
2017-10-20T09:01:08.889Z,13.70
2017-10-20T09:03:38.136Z,12.90
2017-10-20T09:06:06.474Z,13.87
2017-10-20T09:08:36.270Z,14.23
2017-10-20T09:11:04.611Z,13.00
2017-10-20T09:13:32.990Z,13.67
2017-10-20T09:16:01.384Z,11.83
2017-10-20T09:18:29.673Z,14.37
2017-10-20T09:20:58.144Z,13.50
2017-10-20T09:23:26.626Z,12.17
2017-10-20T09:25:56.622Z,12.60
2017-10-20T09:28:24.955Z,13.27
2017-10-20T09:30:54.001Z,12.93
2017-10-20T09:33:22.460Z,14.10
2017-10-20T09:35:52.612Z,15.33
2017-10-20T09:38:20.955Z,14.40
2017-10-20T09:40:49.285Z,14.33
2017-10-20T09:43:18.470Z,11.60
2017-10-20T09:45:46.932Z,11.80
2017-10-20T09:48:15.381Z,11.73
2017-10-20T09:50:43.704Z,11.30
2017-10-20T09:53:12.039Z,13.00
2017-10-20T09:55:40.405Z,11.40
2017-10-20T09:58:08.896Z,12.20
2017-10-20T10:00:37.212Z,13.33
2017-10-20T10:03:05.528Z,12.00
2017-10-20T10:05:34.781Z,14.43
2017-10-20T10:08:03.293Z,16.03
2017-10-20T10:10:31.661Z,15.00
2017-10-20T10:13:00.226Z,16.17
2017-10-20T10:15:28.573Z,17.33
2017-10-20T10:17:56.880Z,18.50
2017-10-20T10:20:25.217Z,18.83
2017-10-20T10:22:53.601Z,19.20
2017-10-20T10:25:22.208Z,21.70
2017-10-20T10:27:50.680Z,23.90
2017-10-20T10:30:19.036Z,23.30
2017-10-20T10:32:47.540Z,26.10
2017-10-20T10:35:15.944Z,27.03
2017-10-20T10:37:44.317Z,23.70
2017-10-20T10:40:12.776Z,24.10
2017-10-20T10:42:41.287Z,22.97
2017-10-20T10:45:09.629Z,20.23
2017-10-20T10:47:37.981Z,19.63
2017-10-20T10:50:06.496Z,21.20
2017-10-20T10:52:34.831Z,20.67
2017-10-20T10:55:03.163Z,20.20
2017-10-20T10:57:31.530Z,16.80
2017-10-20T11:00:00.044Z,16.60
2017-10-20T11:02:28.392Z,14.03
2017-10-20T11:05:05.340Z,13.17
2017-10-20T11:09:50.912Z,11.13
2017-10-20T11:12:58.293Z,11.70
2017-10-20T11:15:26.713Z,11.97
2017-10-20T11:17:55.460Z,11.23
2017-10-20T11:20:24.324Z,11.70
2017-10-20T11:22:52.641Z,11.63
2017-10-20T11:25:21.023Z,12.07
2017-10-20T11:27:49.552Z,10.80
2017-10-20T11:30:17.904Z,12.33
2017-10-20T11:32:47.101Z,10.60
2017-10-20T11:35:15.649Z,10.93
2017-10-20T11:37:44.336Z,10.60
2017-10-20T11:40:12.755Z,10.43
2017-10-20T11:42:41.298Z,12.07
2017-10-20T11:45:10.784Z,12.93
2017-10-20T11:47:39.096Z,12.73
2017-10-20T11:50:07.420Z,14.60
2017-10-20T11:52:35.838Z,16.80
2017-10-20T11:55:04.212Z,15.37
2017-10-20T11:57:32.575Z,16.00
2017-10-20T12:00:01.093Z,15.43
2017-10-20T12:02:29.540Z,14.30
2017-10-20T12:04:57.944Z,14.40
2017-10-20T12:07:26.276Z,14.47
2017-10-20T12:09:54.699Z,11.57
2017-10-20T12:12:23.256Z,13.80
2017-10-20T12:14:51.588Z,12.43
2017-10-20T12:17:19.959Z,11.80
2017-10-20T12:19:48.277Z,11.87
2017-10-20T12:22:16.591Z,9.90
2017-10-20T12:24:44.924Z,10.07
2017-10-20T12:27:14.344Z,9.30
2017-10-20T12:29:42.692Z,9.30
2017-10-20T12:32:11.009Z,8.00
2017-10-20T12:34:39.320Z,8.80
2017-10-20T12:37:07.682Z,8.33
2017-10-20T12:39:36.149Z,8.50
2017-10-20T12:42:04.461Z,7.97
2017-10-20T12:44:32.788Z,8.80
2017-10-20T12:47:01.156Z,9.10
2017-10-20T12:49:29.472Z,7.60
2017-10-20T12:51:57.798Z,9.07
2017-10-20T12:54:26.224Z,8.50
2017-10-20T12:56:54.913Z,9.10
2017-10-20T12:59:23.416Z,7.70
2017-10-20T13:01:51.720Z,7.70
2017-10-20T13:04:20.016Z,8.30
2017-10-20T13:06:49.112Z,8.20
2017-10-20T13:09:19.151Z,8.50
2017-10-20T13:11:47.495Z,7.90
2017-10-20T13:14:16.541Z,7.17
2017-10-20T13:16:45.016Z,6.93
2017-10-20T13:19:13.437Z,8.50
2017-10-20T13:21:42.516Z,7.90
2017-10-20T13:24:11.424Z,7.20
2017-10-20T13:26:39.978Z,8.27
2017-10-20T13:29:08.981Z,7.30
2017-10-20T13:31:37.293Z,6.80
2017-10-20T13:34:06.333Z,8.13
2017-10-20T13:36:34.956Z,7.70
2017-10-20T13:39:03.609Z,8.50
2017-10-20T13:41:31.920Z,7.97
2017-10-20T13:44:00.229Z,7.90
2017-10-20T13:46:28.859Z,7.10
2017-10-20T13:48:57.358Z,8.20
2017-10-20T13:51:25.818Z,8.40
2017-10-20T13:53:54.196Z,8.20
2017-10-20T13:56:22.591Z,7.30
2017-10-20T13:58:51.028Z,8.10
2017-10-20T14:01:19.371Z,7.90
2017-10-20T14:03:47.797Z,8.63
2017-10-20T14:06:16.349Z,8.27
2017-10-20T14:08:45.624Z,7.90
2017-10-20T14:11:13.952Z,7.90
2017-10-20T14:13:42.657Z,9.07
2017-10-20T14:16:11.372Z,8.13
2017-10-20T14:18:39.690Z,8.07
2017-10-20T14:21:08.024Z,7.33
2017-10-20T14:23:36.461Z,8.23
2017-10-20T14:26:04.893Z,7.97
2017-10-20T14:28:33.217Z,9.00
2017-10-20T14:31:01.529Z,9.37
2017-10-20T14:33:29.965Z,9.50
2017-10-20T14:35:58.291Z,9.57
2017-10-20T14:38:26.645Z,9.10
2017-10-20T14:40:54.968Z,9.47
2017-10-20T14:43:23.491Z,8.80
2017-10-20T14:45:51.810Z,8.67
2017-10-20T14:48:20.114Z,8.37
2017-10-20T14:50:49.181Z,8.80
2017-10-20T14:53:17.508Z,9.40
2017-10-20T14:55:45.857Z,8.43
2017-10-20T14:58:14.184Z,9.13
2017-10-20T15:00:42.540Z,9.57
2017-10-20T15:03:11.659Z,10.00
2017-10-20T15:05:40.058Z,10.03
2017-10-20T15:08:08.374Z,8.50
2017-10-20T15:10:36.739Z,8.83
2017-10-20T15:13:06.541Z,7.73
2017-10-20T15:15:35.220Z,8.37
2017-10-20T15:18:03.600Z,8.50
2017-10-20T15:20:32.064Z,8.20
2017-10-20T15:23:00.558Z,7.70
2017-10-20T15:25:28.862Z,7.87
2017-10-20T15:27:57.963Z,8.43
2017-10-20T15:30:26.377Z,8.50
2017-10-20T15:32:54.705Z,7.03
2017-10-20T15:35:23.055Z,6.67
2017-10-20T15:37:51.441Z,7.47
2017-10-20T15:40:19.938Z,7.20
2017-10-20T15:42:48.565Z,6.40
2017-10-20T15:45:17.065Z,6.70
2017-10-20T15:47:45.372Z,6.30
2017-10-20T15:50:13.676Z,6.70
2017-10-20T15:52:41.980Z,6.07
2017-10-20T15:55:10.336Z,6.40
2017-10-20T15:57:38.791Z,7.50
2017-10-20T16:00:07.096Z,7.00
2017-10-20T16:02:35.419Z,6.80
2017-10-20T16:05:03.933Z,6.20
2017-10-20T16:07:32.280Z,5.70
2017-10-20T16:10:00.644Z,6.63
2017-10-20T16:12:29.084Z,7.23
2017-10-20T16:14:57.411Z,6.20
2017-10-20T16:17:26.041Z,8.10
2017-10-20T16:19:54.657Z,7.97
2017-10-20T16:22:22.985Z,7.03
2017-10-20T16:24:51.466Z,6.93
2017-10-20T16:27:19.908Z,7.93
2017-10-20T16:29:48.247Z,6.90
2017-10-20T16:50:16.333Z,8.37
2017-10-20T16:52:44.458Z,8.13
2017-10-20T16:55:12.567Z,9.17
2017-10-20T16:57:40.722Z,8.90
2017-10-20T17:00:08.826Z,8.10
2017-10-20T17:02:36.968Z,9.00
2017-10-20T17:05:05.166Z,8.67
2017-10-20T17:07:33.241Z,8.37
2017-10-20T17:10:01.315Z,8.80
2017-10-20T17:12:29.589Z,9.23
2017-10-20T17:14:57.698Z,7.90
2017-10-20T17:17:26.514Z,8.73
2017-10-20T17:19:54.594Z,9.70
2017-10-20T17:22:22.717Z,8.90
2017-10-20T17:24:51.230Z,8.43
2017-10-20T17:27:20.060Z,9.47
2017-10-20T17:29:48.139Z,8.80
2017-10-20T17:32:16.199Z,10.00
2017-10-20T17:34:44.284Z,8.50
2017-10-20T17:37:12.383Z,9.10
2017-10-20T17:39:40.479Z,9.17
2017-10-20T17:42:08.589Z,9.57
2017-10-20T17:44:36.661Z,10.07
2017-10-20T17:47:04.779Z,10.63
2017-10-20T17:49:32.907Z,11.97
2017-10-20T17:52:00.986Z,10.33
2017-10-20T17:54:29.058Z,10.27
2017-10-20T17:56:57.208Z,9.40
2017-10-20T17:59:25.286Z,10.67
2017-10-20T18:01:53.390Z,9.13
2017-10-20T18:04:21.478Z,10.27
2017-10-20T18:06:50.294Z,10.27
2017-10-20T18:09:19.114Z,10.03
2017-10-20T18:11:47.225Z,9.27
2017-10-20T18:14:15.883Z,8.60
2017-10-20T18:16:43.994Z,7.00
2017-10-20T18:19:12.094Z,6.97
2017-10-20T18:21:40.930Z,7.37
2017-10-20T18:24:09.005Z,6.50
2017-10-20T18:26:37.071Z,5.90
2017-10-20T18:29:05.150Z,5.93
2017-10-20T18:31:33.631Z,5.27
2017-10-20T18:34:01.966Z,5.87
2017-10-20T18:36:30.049Z,5.70
2017-10-20T18:38:58.125Z,5.70
2017-10-20T18:41:26.242Z,6.20
2017-10-20T18:43:55.798Z,6.20
2017-10-20T18:46:23.903Z,5.50
2017-10-20T18:48:51.973Z,6.10
2017-10-20T18:51:20.061Z,5.20
2017-10-20T18:53:48.141Z,5.00
2017-10-20T18:56:16.226Z,5.30
2017-10-20T18:58:45.083Z,5.40
2017-10-20T19:01:13.294Z,4.90
2017-10-20T19:03:41.375Z,4.53
2017-10-20T19:06:09.474Z,4.27
2017-10-20T19:08:37.590Z,4.17
2017-10-20T19:11:05.683Z,5.20
2017-10-20T19:13:34.938Z,4.80
2017-10-20T19:16:03.183Z,4.30
2017-10-20T19:18:31.271Z,4.67
2017-10-20T19:20:59.354Z,4.43
2017-10-20T19:23:27.530Z,4.60
2017-10-20T19:25:55.694Z,4.30
2017-10-20T19:28:23.822Z,4.90
2017-10-20T19:30:52.195Z,4.30
2017-10-20T19:33:20.369Z,5.40
2017-10-20T19:35:48.547Z,5.03
2017-10-20T19:38:17.538Z,5.03
2017-10-20T19:40:45.781Z,5.87
2017-10-20T19:43:13.929Z,4.60
2017-10-20T19:45:42.155Z,4.50
2017-10-20T19:48:10.278Z,5.70
2017-10-20T19:50:38.474Z,4.67
2017-10-20T19:53:06.854Z,5.30
2017-10-20T19:55:34.989Z,5.17
2017-10-20T19:58:03.107Z,4.97
2017-10-20T20:00:31.306Z,5.03
2017-10-20T20:02:59.487Z,5.00
2017-10-20T20:05:28.406Z,5.90
2017-10-20T20:07:56.618Z,4.90
2017-10-20T20:10:26.180Z,5.60
2017-10-20T20:12:54.282Z,5.43
2017-10-20T20:15:22.524Z,5.03
2017-10-20T20:17:51.418Z,5.23
2017-10-20T20:20:20.302Z,5.40
2017-10-20T20:22:48.402Z,4.57
2017-10-20T20:25:16.523Z,4.87
2017-10-20T20:27:44.806Z,5.03
2017-10-20T20:30:12.973Z,4.53
2017-10-20T20:32:41.116Z,5.77
2017-10-20T20:35:09.499Z,4.80
2017-10-20T20:37:37.902Z,5.50
2017-10-20T20:40:06.051Z,5.70
2017-10-20T20:42:34.149Z,5.23
2017-10-20T20:45:02.314Z,5.20
2017-10-20T20:47:30.417Z,5.43
2017-10-20T20:49:58.486Z,6.30
2017-10-20T20:52:27.038Z,5.73
2017-10-20T20:54:55.302Z,5.90
2017-10-20T20:57:23.394Z,5.70
2017-10-20T20:59:52.275Z,5.10
2017-10-20T21:02:20.426Z,5.57
2017-10-20T21:04:48.588Z,5.10
2017-10-20T21:07:16.890Z,6.50
2017-10-20T21:09:45.148Z,6.40
2017-10-20T21:12:13.392Z,5.70
2017-10-20T21:14:41.998Z,5.70
2017-10-20T21:17:10.110Z,5.43
2017-10-20T21:19:38.209Z,5.30
2017-10-20T21:22:06.297Z,5.73
2017-10-20T21:24:34.357Z,6.07
2017-10-20T21:27:02.543Z,5.50
2017-10-20T21:29:31.378Z,5.80
2017-10-20T21:31:59.470Z,5.63
2017-10-20T21:34:27.600Z,6.00
2017-10-20T21:36:55.658Z,5.27
2017-10-20T21:39:24.938Z,5.53
2017-10-20T21:41:53.047Z,5.57
2017-10-20T21:44:21.122Z,6.90
2017-10-20T21:46:49.213Z,6.00
2017-10-20T21:49:17.312Z,6.40
2017-10-20T21:51:45.399Z,6.33
2017-10-20T21:54:13.450Z,5.10
2017-10-20T21:56:41.814Z,6.63
2017-10-20T21:59:09.912Z,5.60
2017-10-20T22:01:37.990Z,6.60
2017-10-20T22:04:06.086Z,5.43
2017-10-20T22:06:34.874Z,6.43
2017-10-20T22:09:03.369Z,5.07
2017-10-20T22:11:32.083Z,5.50
2017-10-20T22:14:00.146Z,5.83
2017-10-20T22:16:28.218Z,6.40
2017-10-20T22:18:56.302Z,6.33
2017-10-20T22:21:24.367Z,6.40
2017-10-20T22:23:52.470Z,6.23
2017-10-20T22:26:20.658Z,6.00
2017-10-20T22:28:49.633Z,5.97
2017-10-20T22:31:17.934Z,5.97
2017-10-20T22:33:46.470Z,5.40
2017-10-20T22:36:14.556Z,5.43
2017-10-20T22:38:43.990Z,5.23
2017-10-20T22:41:12.324Z,5.80
2017-10-20T22:43:40.460Z,5.90
2017-10-20T22:46:08.659Z,5.20
2017-10-20T22:48:36.744Z,5.40
2017-10-20T22:51:05.021Z,5.63
2017-10-20T22:53:33.188Z,5.07
2017-10-20T22:56:02.066Z,5.60
2017-10-20T22:58:30.148Z,4.90
2017-10-20T23:00:58.473Z,4.40
2017-10-20T23:03:26.647Z,4.73
2017-10-20T23:05:54.726Z,5.43
2017-10-20T23:08:22.904Z,5.83
2017-10-20T23:10:51.033Z,4.70
2017-10-20T23:13:19.152Z,4.77
2017-10-20T23:15:47.221Z,4.37
2017-10-20T23:18:15.874Z,5.30
2017-10-20T23:20:43.961Z,4.87
2017-10-20T23:23:12.110Z,4.50
2017-10-20T23:25:40.194Z,5.13
2017-10-20T23:28:08.294Z,4.70
2017-10-20T23:30:36.353Z,4.77
2017-10-20T23:33:04.430Z,4.57
2017-10-20T23:35:32.502Z,4.07
2017-10-20T23:38:00.623Z,3.73
2017-10-20T23:40:29.001Z,4.63
2017-10-20T23:42:57.084Z,4.67
2017-10-20T23:45:25.167Z,4.43
2017-10-20T23:47:53.242Z,4.17
2017-10-20T23:50:21.302Z,3.60
2017-10-20T23:52:49.379Z,5.10
2017-10-20T23:55:17.430Z,4.40
2017-10-20T23:57:45.875Z,3.73
